createdAt,value
2019-05-29T00:01:22.517Z,99.90
2019-05-29T00:03:51.617Z,99.90
2019-05-29T00:06:20.583Z,99.90
2019-05-29T00:08:49.524Z,99.90
2019-05-29T00:11:18.435Z,99.90
2019-05-29T00:13:47.544Z,99.90
2019-05-29T00:16:16.716Z,99.90
2019-05-29T00:18:45.593Z,99.90
2019-05-29T00:21:14.783Z,99.90
2019-05-29T00:23:43.866Z,99.90
2019-05-29T00:26:12.819Z,99.90
2019-05-29T00:28:41.725Z,99.90
2019-05-29T00:31:12.199Z,99.90
2019-05-29T00:33:41.269Z,99.90
2019-05-29T00:36:10.360Z,99.90
2019-05-29T00:38:39.434Z,99.90
2019-05-29T00:41:08.825Z,99.90
2019-05-29T00:43:37.955Z,99.90
2019-05-29T00:46:07.279Z,99.90
2019-05-29T00:48:36.471Z,99.90
2019-05-29T00:51:05.481Z,99.80
2019-05-29T00:53:34.505Z,99.60
2019-05-29T00:56:03.419Z,99.60
2019-05-29T00:58:32.615Z,99.60
2019-05-29T01:01:01.638Z,99.70
2019-05-29T01:03:30.562Z,99.60
2019-05-29T01:05:59.494Z,99.90
2019-05-29T01:08:28.751Z,99.90
2019-05-29T01:10:57.732Z,99.90
2019-05-29T01:13:29.055Z,99.90
2019-05-29T01:15:57.992Z,99.90
2019-05-29T01:18:26.824Z,99.90
2019-05-29T01:20:56.098Z,99.90
2019-05-29T01:23:24.913Z,99.90
2019-05-29T01:25:53.963Z,99.90
2019-05-29T01:28:23.224Z,99.90
2019-05-29T01:30:52.474Z,99.90
2019-05-29T01:33:23.719Z,99.90
2019-05-29T01:35:52.982Z,99.90
2019-05-29T01:38:23.396Z,99.90
2019-05-29T01:40:52.762Z,99.90
2019-05-29T01:43:21.743Z,99.90
2019-05-29T01:45:50.744Z,99.90
2019-05-29T01:48:19.672Z,99.90
2019-05-29T01:50:48.508Z,99.90
2019-05-29T01:53:17.658Z,99.90
2019-05-29T01:55:46.636Z,99.90
2019-05-29T01:58:15.711Z,99.90
2019-05-29T02:00:45.209Z,99.90
2019-05-29T02:03:14.271Z,99.90
2019-05-29T02:05:43.624Z,99.90
2019-05-29T02:08:12.492Z,99.90
2019-05-29T02:10:41.330Z,99.90
2019-05-29T02:13:10.248Z,99.90
2019-05-29T02:15:39.241Z,99.90
2019-05-29T02:18:08.235Z,99.90
2019-05-29T02:20:37.065Z,99.90
2019-05-29T02:23:06.324Z,99.90
2019-05-29T02:25:35.245Z,99.90
2019-05-29T02:28:04.176Z,99.90
2019-05-29T02:30:33.342Z,99.90
2019-05-29T02:33:02.355Z,99.90
2019-05-29T02:35:31.236Z,99.90
2019-05-29T02:38:00.095Z,99.90
2019-05-29T02:40:30.113Z,99.90
2019-05-29T02:42:59.345Z,99.90
2019-05-29T02:45:50.757Z,99.90
2019-05-29T02:47:59.250Z,99.90
2019-05-29T02:50:29.354Z,99.90
2019-05-29T02:52:58.915Z,99.90
2019-05-29T02:55:28.887Z,99.90
2019-05-29T02:57:58.150Z,99.90
2019-05-29T03:00:55.213Z,99.90
2019-05-29T03:03:26.638Z,99.90
2019-05-29T03:05:56.613Z,99.90
2019-05-29T03:08:27.268Z,99.90
2019-05-29T03:10:56.302Z,99.90
2019-05-29T03:13:25.656Z,99.90
2019-05-29T03:16:09.889Z,99.90
2019-05-29T03:18:28.147Z,99.90
2019-05-29T03:20:57.209Z,99.90
2019-05-29T03:23:26.668Z,99.90
2019-05-29T03:25:56.214Z,99.90
2019-05-29T03:28:25.703Z,99.90
2019-05-29T03:30:54.965Z,99.90
2019-05-29T03:33:24.942Z,99.90
2019-05-29T03:35:54.819Z,99.90
2019-05-29T03:38:23.701Z,99.90
2019-05-29T03:40:52.922Z,99.90
2019-05-29T03:43:22.093Z,99.90
2019-05-29T03:45:51.240Z,99.90
2019-05-29T03:48:20.254Z,99.90
2019-05-29T03:50:49.423Z,99.90
2019-05-29T03:53:18.393Z,99.90
2019-05-29T03:55:47.690Z,99.90
2019-05-29T03:58:16.702Z,99.90
2019-05-29T04:00:48.221Z,99.90
2019-05-29T04:03:16.557Z,99.90
2019-05-29T04:05:45.712Z,99.90
2019-05-29T04:08:14.781Z,99.90
2019-05-29T04:10:43.836Z,99.90
2019-05-29T04:13:12.920Z,99.90
2019-05-29T04:15:42.715Z,99.90
2019-05-29T04:18:11.735Z,99.90
2019-05-29T04:20:41.175Z,99.90
2019-05-29T04:23:10.218Z,99.90
2019-05-29T04:25:42.659Z,99.90
2019-05-29T04:28:09.972Z,99.90
2019-05-29T04:30:39.455Z,99.90
2019-05-29T04:33:08.718Z,99.90
2019-05-29T04:35:39.596Z,99.90
2019-05-29T04:38:08.295Z,99.90
2019-05-29T04:40:37.972Z,99.90
2019-05-29T04:43:08.309Z,99.90
2019-05-29T04:45:39.245Z,99.90
2019-05-29T04:48:07.880Z,99.90
2019-05-29T04:50:38.664Z,99.90
2019-05-29T04:53:07.566Z,99.90
2019-05-29T04:55:36.984Z,99.90
2019-05-29T04:58:06.241Z,99.90
2019-05-29T05:00:35.336Z,99.90
2019-05-29T05:03:04.403Z,99.90
2019-05-29T05:05:33.715Z,99.90
2019-05-29T05:08:03.001Z,99.90
2019-05-29T05:10:37.781Z,99.60
2019-05-29T05:13:08.095Z,99.50
2019-05-29T05:15:38.011Z,99.20
2019-05-29T05:18:08.045Z,98.70
2019-05-29T05:20:38.302Z,98.00
2019-05-29T05:23:07.720Z,97.60
2019-05-29T05:25:36.856Z,96.90
2019-05-29T05:28:05.989Z,96.20
2019-05-29T05:30:35.058Z,95.80
2019-05-29T05:33:04.213Z,95.30
2019-05-29T05:35:33.235Z,95.00
2019-05-29T05:38:02.415Z,94.80
2019-05-29T05:40:32.641Z,94.90
2019-05-29T05:43:02.182Z,94.90
2019-05-29T05:45:31.433Z,94.90
2019-05-29T05:48:00.577Z,95.00
2019-05-29T05:50:29.715Z,94.90
2019-05-29T05:52:58.614Z,94.90
2019-05-29T05:55:27.573Z,95.40
2019-05-29T05:57:56.606Z,94.60
2019-05-29T06:00:35.689Z,94.90
2019-05-29T06:03:04.947Z,94.60
2019-05-29T06:05:34.263Z,93.00
2019-05-29T06:08:03.190Z,91.50
2019-05-29T06:10:32.172Z,91.50
2019-05-29T06:13:01.634Z,91.70
2019-05-29T06:15:30.792Z,92.00
2019-05-29T06:18:19.509Z,92.20
2019-05-29T06:20:30.886Z,92.60
2019-05-29T06:22:59.777Z,92.80
2019-05-29T06:25:28.991Z,93.00
2019-05-29T06:27:58.347Z,93.00
2019-05-29T06:30:27.469Z,93.20
2019-05-29T06:32:56.603Z,92.70
2019-05-29T06:35:25.550Z,92.50
2019-05-29T06:37:54.823Z,92.10
2019-05-29T06:40:37.768Z,91.80
2019-05-29T06:43:11.776Z,92.00
2019-05-29T06:45:39.995Z,91.60
2019-05-29T06:48:09.440Z,92.20
2019-05-29T06:50:39.385Z,92.90
2019-05-29T06:53:09.254Z,91.40
2019-05-29T06:55:39.748Z,91.80
2019-05-29T06:58:12.036Z,91.50
2019-05-29T07:00:41.188Z,91.20
2019-05-29T07:03:10.744Z,90.80
2019-05-29T07:05:39.904Z,91.10
2019-05-29T07:08:19.019Z,91.60
2019-05-29T07:10:40.392Z,91.20
2019-05-29T07:13:09.959Z,91.50
2019-05-29T07:15:39.009Z,91.40
2019-05-29T07:18:07.950Z,90.70
2019-05-29T07:20:37.118Z,90.90
2019-05-29T07:23:06.180Z,90.50
2019-05-29T07:25:35.142Z,89.10
2019-05-29T07:28:04.299Z,82.80
2019-05-29T07:30:33.530Z,79.70
2019-05-29T07:33:04.545Z,80.30
2019-05-29T07:35:33.595Z,81.40
2019-05-29T07:38:02.539Z,83.30
2019-05-29T07:40:35.598Z,83.70
2019-05-29T07:43:02.414Z,85.20
2019-05-29T07:45:31.643Z,85.70
2019-05-29T07:48:00.726Z,85.70
2019-05-29T07:50:29.916Z,86.80
2019-05-29T07:52:59.285Z,86.60
2019-05-29T07:55:29.197Z,83.60
2019-05-29T07:57:59.034Z,79.90
2019-05-29T08:00:35.533Z,77.10
2019-05-29T08:02:59.378Z,72.10
2019-05-29T08:05:28.826Z,67.70
2019-05-29T08:07:58.202Z,63.40
2019-05-29T08:10:28.644Z,66.70
2019-05-29T08:12:57.897Z,64.00
2019-05-29T08:15:27.042Z,57.50
2019-05-29T08:17:55.976Z,46.90
2019-05-29T08:20:25.011Z,38.20
2019-05-29T08:22:54.077Z,32.00
2019-05-29T08:25:23.192Z,30.00
2019-05-29T08:27:52.186Z,28.50
2019-05-29T08:30:21.828Z,27.20
2019-05-29T08:32:51.395Z,25.30
2019-05-29T08:35:20.584Z,26.20
2019-05-29T08:37:52.627Z,26.10
2019-05-29T08:40:21.756Z,25.60
2019-05-29T08:42:51.453Z,25.20
2019-05-29T08:45:20.904Z,24.90
2019-05-29T08:47:49.830Z,24.80
2019-05-29T08:50:19.504Z,24.80
2019-05-29T08:52:48.574Z,24.00
2019-05-29T08:55:17.585Z,23.60
2019-05-29T08:57:46.435Z,23.30
2019-05-29T09:00:18.715Z,24.20
2019-05-29T09:02:49.193Z,25.00
2019-05-29T09:05:18.435Z,25.50
2019-05-29T09:07:48.372Z,27.70
2019-05-29T09:10:18.152Z,29.40
2019-05-29T09:12:56.906Z,33.10
2019-05-29T09:15:21.306Z,35.00
2019-05-29T09:17:48.601Z,36.80
2019-05-29T09:20:32.042Z,38.30
2019-05-29T09:22:48.341Z,39.00
2019-05-29T09:25:17.513Z,40.00
2019-05-29T09:27:47.808Z,40.80
2019-05-29T09:30:18.329Z,40.90
2019-05-29T09:32:51.654Z,40.40
2019-05-29T09:35:20.160Z,39.90
2019-05-29T09:37:49.230Z,39.70
2019-05-29T09:40:20.805Z,39.40
2019-05-29T09:42:50.310Z,38.80
2019-05-29T09:45:19.778Z,36.70
2019-05-29T09:47:48.686Z,37.10
2019-05-29T09:50:18.686Z,37.40
2019-05-29T09:52:48.764Z,37.40
2019-05-29T09:55:18.035Z,37.80
2019-05-29T09:57:46.972Z,37.60
2019-05-29T10:00:16.100Z,38.30
2019-05-29T10:02:45.113Z,38.90
2019-05-29T10:05:14.190Z,38.80
2019-05-29T10:07:43.102Z,39.20
2019-05-29T10:10:12.679Z,40.20
2019-05-29T10:12:41.585Z,40.10
2019-05-29T10:15:13.694Z,41.40
2019-05-29T10:17:42.847Z,41.40
2019-05-29T10:20:13.640Z,41.00
2019-05-29T10:22:42.568Z,39.30
2019-05-29T10:25:12.272Z,38.70
2019-05-29T10:27:41.618Z,39.20
2019-05-29T10:30:13.923Z,39.60
2019-05-29T10:32:44.397Z,39.50
2019-05-29T10:35:14.034Z,39.90
2019-05-29T10:37:44.451Z,40.30
2019-05-29T10:40:13.892Z,40.10
2019-05-29T10:42:43.132Z,40.40
2019-05-29T10:45:13.149Z,40.60
2019-05-29T10:47:43.234Z,40.50
2019-05-29T10:50:12.578Z,40.40
2019-05-29T10:52:41.657Z,40.70
2019-05-29T10:55:11.105Z,40.90
2019-05-29T10:57:40.936Z,40.50
2019-05-29T11:00:10.132Z,40.10
2019-05-29T11:02:39.059Z,39.50
2019-05-29T11:05:08.674Z,39.50
2019-05-29T11:07:37.568Z,39.30
2019-05-29T11:10:07.685Z,39.20
2019-05-29T11:12:39.340Z,39.20
2019-05-29T11:15:20.716Z,38.80
2019-05-29T11:17:38.869Z,37.70
2019-05-29T11:20:08.628Z,37.60
2019-05-29T11:22:37.776Z,37.80
2019-05-29T11:25:22.083Z,38.60
2019-05-29T11:27:38.101Z,39.10
2019-05-29T11:30:07.457Z,39.70
2019-05-29T11:32:36.870Z,39.70
2019-05-29T11:35:06.148Z,40.00
2019-05-29T11:37:35.387Z,39.70
2019-05-29T11:40:05.075Z,39.60
2019-05-29T11:42:34.051Z,39.90
2019-05-29T11:45:03.825Z,40.20
2019-05-29T11:47:33.332Z,39.20
2019-05-29T11:50:16.430Z,38.90
2019-05-29T11:52:42.342Z,38.50
2019-05-29T11:55:07.919Z,39.10
2019-05-29T11:57:35.446Z,39.00
2019-05-29T12:00:14.914Z,39.10
2019-05-29T12:02:37.227Z,38.50
2019-05-29T12:05:07.286Z,37.60
2019-05-29T12:07:36.188Z,37.50
2019-05-29T12:10:06.267Z,37.00
2019-05-29T12:12:35.633Z,37.20
2019-05-29T12:15:13.271Z,37.10
2019-05-29T12:17:38.328Z,37.50
2019-05-29T12:20:26.540Z,37.00
2019-05-29T12:22:38.800Z,37.00
2019-05-29T12:25:08.101Z,37.80
2019-05-29T12:27:37.402Z,37.80
2019-05-29T12:30:06.911Z,37.60
2019-05-29T12:32:35.931Z,38.50
2019-05-29T12:35:05.911Z,39.20
2019-05-29T12:37:34.843Z,38.90
2019-05-29T12:40:04.654Z,38.90
2019-05-29T12:42:33.619Z,37.90
2019-05-29T12:45:04.149Z,37.80
2019-05-29T12:47:33.294Z,38.10
2019-05-29T12:50:02.642Z,38.70
2019-05-29T12:52:32.891Z,38.60
2019-05-29T12:55:02.426Z,39.60
2019-05-29T12:57:31.551Z,39.60
2019-05-29T13:00:00.501Z,39.00
2019-05-29T13:02:29.503Z,38.90
2019-05-29T13:05:13.089Z,37.80
2019-05-29T13:07:29.168Z,37.50
2019-05-29T13:09:58.919Z,37.40
2019-05-29T13:12:27.927Z,37.50
2019-05-29T13:14:56.931Z,37.80
2019-05-29T13:17:25.934Z,37.70
2019-05-29T13:19:59.390Z,37.50
2019-05-29T13:22:25.501Z,36.80
2019-05-29T13:24:55.157Z,36.70
2019-05-29T13:27:24.105Z,36.70
2019-05-29T13:29:56.497Z,36.70
2019-05-29T13:32:23.709Z,36.80
2019-05-29T13:34:52.976Z,37.00
2019-05-29T13:37:21.928Z,37.60
2019-05-29T13:39:51.187Z,37.70
2019-05-29T13:42:20.164Z,37.30
2019-05-29T13:44:49.114Z,37.60
2019-05-29T13:47:18.066Z,38.20
2019-05-29T13:49:47.515Z,37.80
2019-05-29T13:52:16.788Z,37.90
2019-05-29T13:54:45.655Z,37.80
2019-05-29T13:57:14.954Z,38.20
2019-05-29T13:59:43.886Z,37.90
2019-05-29T14:02:12.838Z,37.10
2019-05-29T14:04:41.776Z,37.60
2019-05-29T14:07:10.978Z,38.20
2019-05-29T14:09:39.902Z,38.80
2019-05-29T14:12:09.500Z,39.50
2019-05-29T14:14:38.854Z,39.70
2019-05-29T14:17:08.808Z,39.70
2019-05-29T14:19:37.950Z,40.20
2019-05-29T14:22:07.139Z,40.20
2019-05-29T14:24:35.983Z,40.50
2019-05-29T14:27:05.493Z,40.70
2019-05-29T14:29:34.465Z,40.30
2019-05-29T14:32:03.449Z,41.40
2019-05-29T14:34:32.400Z,41.20
2019-05-29T14:37:03.223Z,40.80
2019-05-29T14:39:31.940Z,40.50
2019-05-29T14:42:01.732Z,40.00
2019-05-29T14:44:31.181Z,40.00
2019-05-29T14:47:00.122Z,40.20
2019-05-29T14:49:28.947Z,40.30
2019-05-29T14:51:57.862Z,40.30
2019-05-29T14:54:40.522Z,39.60
2019-05-29T14:56:57.512Z,39.50
2019-05-29T14:59:26.617Z,40.10
2019-05-29T15:01:55.523Z,39.10
2019-05-29T15:04:24.452Z,39.30
2019-05-29T15:06:53.504Z,39.50
2019-05-29T15:09:22.468Z,39.50
2019-05-29T15:11:51.636Z,39.80
2019-05-29T15:14:20.853Z,39.50
2019-05-29T15:16:49.777Z,40.00
2019-05-29T15:19:19.557Z,39.90
2019-05-29T15:21:48.530Z,39.10
2019-05-29T15:24:17.423Z,39.20
2019-05-29T15:26:46.429Z,38.60
2019-05-29T15:29:17.894Z,38.50
2019-05-29T15:31:46.041Z,39.40
2019-05-29T15:34:14.993Z,39.90
2019-05-29T15:36:44.304Z,39.90
2019-05-29T15:39:13.241Z,40.40
2019-05-29T15:41:42.161Z,40.80
2019-05-29T15:44:11.085Z,40.40
2019-05-29T15:46:40.025Z,41.00
2019-05-29T15:49:10.978Z,41.00
2019-05-29T15:51:40.137Z,40.10
2019-05-29T15:54:09.227Z,40.30
2019-05-29T15:56:38.222Z,40.20
2019-05-29T15:59:07.856Z,40.40
2019-05-29T16:01:38.146Z,40.50
2019-05-29T16:04:07.648Z,39.90
2019-05-29T16:06:36.544Z,40.30
2019-05-29T16:09:08.161Z,40.00
2019-05-29T16:11:37.294Z,39.90
2019-05-29T16:14:06.378Z,39.90
2019-05-29T16:16:35.200Z,40.00
2019-05-29T16:19:04.790Z,39.90
2019-05-29T16:21:33.805Z,39.60
2019-05-29T16:24:02.678Z,39.50
2019-05-29T16:26:31.542Z,39.50
2019-05-29T16:29:00.431Z,39.90
2019-05-29T16:31:29.378Z,39.20
2019-05-29T16:34:01.273Z,39.10
2019-05-29T16:36:30.358Z,39.50
2019-05-29T16:38:59.298Z,39.70
2019-05-29T16:41:28.257Z,39.60
2019-05-29T16:43:57.465Z,40.00
2019-05-29T16:46:27.077Z,40.40
2019-05-29T16:48:55.949Z,40.90
2019-05-29T16:51:24.929Z,40.10
2019-05-29T16:53:53.811Z,40.20
2019-05-29T16:56:23.366Z,39.50
2019-05-29T16:58:52.768Z,40.00
2019-05-29T17:01:21.848Z,39.90
2019-05-29T17:03:50.896Z,39.70
2019-05-29T17:06:20.206Z,40.00
2019-05-29T17:08:49.226Z,40.20
2019-05-29T17:11:18.597Z,40.60
2019-05-29T17:13:48.203Z,40.80
2019-05-29T17:16:18.221Z,40.40
2019-05-29T17:18:49.113Z,40.00
2019-05-29T17:21:18.683Z,39.80
2019-05-29T17:23:47.749Z,40.00
2019-05-29T17:26:16.756Z,40.20
2019-05-29T17:28:46.399Z,40.60
2019-05-29T17:31:16.790Z,40.90
2019-05-29T17:33:45.952Z,41.30
2019-05-29T17:36:15.071Z,41.60
2019-05-29T17:38:44.002Z,41.30
2019-05-29T17:41:13.030Z,41.10
2019-05-29T17:43:41.931Z,41.60
2019-05-29T17:46:10.888Z,41.60
2019-05-29T17:48:39.879Z,41.50
2019-05-29T17:51:08.848Z,41.80
2019-05-29T17:53:37.860Z,41.50
2019-05-29T17:56:06.839Z,41.90
2019-05-29T17:58:39.088Z,41.80
2019-05-29T18:01:11.724Z,41.90
2019-05-29T18:03:41.168Z,42.10
2019-05-29T18:06:13.221Z,42.80
2019-05-29T18:08:42.436Z,43.10
2019-05-29T18:11:11.807Z,43.10
2019-05-29T18:13:41.168Z,42.90
2019-05-29T18:16:10.077Z,43.60
2019-05-29T18:18:42.722Z,43.80
2019-05-29T18:21:11.584Z,43.90
2019-05-29T18:23:40.598Z,43.60
2019-05-29T18:26:11.210Z,44.60
2019-05-29T18:28:43.696Z,44.10
2019-05-29T18:31:12.734Z,44.10
2019-05-29T18:33:42.206Z,44.50
2019-05-29T18:36:11.440Z,44.60
2019-05-29T18:38:40.904Z,44.50
2019-05-29T18:41:12.681Z,45.20
2019-05-29T18:43:43.186Z,45.70
2019-05-29T18:46:18.507Z,46.20
2019-05-29T18:48:51.138Z,46.20
2019-05-29T18:51:20.970Z,46.50
2019-05-29T18:53:50.521Z,46.70
2019-05-29T18:56:19.935Z,47.00
2019-05-29T18:58:49.275Z,47.40
2019-05-29T19:01:18.503Z,47.80
2019-05-29T19:03:47.530Z,47.80
2019-05-29T19:06:16.869Z,48.10
2019-05-29T19:08:45.859Z,48.40
2019-05-29T19:11:15.259Z,48.60
2019-05-29T19:13:44.264Z,48.90
2019-05-29T19:16:13.307Z,49.00
2019-05-29T19:18:42.505Z,49.20
2019-05-29T19:21:11.909Z,49.30
2019-05-29T19:23:42.137Z,49.60
2019-05-29T19:26:11.804Z,49.60
2019-05-29T19:28:41.159Z,49.80
2019-05-29T19:31:10.498Z,49.80
2019-05-29T19:33:41.340Z,50.00
2019-05-29T19:36:11.127Z,50.20
2019-05-29T19:38:40.670Z,50.00
2019-05-29T19:41:10.395Z,50.10
2019-05-29T19:43:40.134Z,50.40
2019-05-29T19:46:09.494Z,50.60
2019-05-29T19:48:38.618Z,50.60
2019-05-29T19:51:07.690Z,50.70
2019-05-29T19:53:36.915Z,50.80
2019-05-29T19:56:05.924Z,50.90
2019-05-29T19:58:36.117Z,50.80
2019-05-29T20:01:05.618Z,51.10
2019-05-29T20:03:36.724Z,51.10
2019-05-29T20:06:06.224Z,51.00
2019-05-29T20:08:37.566Z,50.90
2019-05-29T20:11:07.425Z,50.90
2019-05-29T20:13:36.401Z,51.00
2019-05-29T20:16:05.470Z,51.00
2019-05-29T20:18:34.610Z,51.00
2019-05-29T20:21:03.601Z,51.20
2019-05-29T20:23:32.902Z,51.30
2019-05-29T20:26:02.144Z,51.40
2019-05-29T20:28:32.075Z,51.50
2019-05-29T20:31:01.180Z,51.60
2019-05-29T20:33:30.415Z,51.40
2019-05-29T20:35:59.472Z,51.50
2019-05-29T20:38:28.476Z,51.70
2019-05-29T20:40:57.777Z,52.00
2019-05-29T20:45:55.692Z,52.30
2019-05-29T20:48:24.701Z,52.30
2019-05-29T20:50:54.651Z,52.20
2019-05-29T20:53:28.413Z,52.30
2019-05-29T20:55:57.686Z,52.70
2019-05-29T20:58:26.834Z,52.90
2019-05-29T21:00:56.934Z,53.20
2019-05-29T21:03:26.052Z,53.40
2019-05-29T21:05:54.973Z,53.80
2019-05-29T21:08:25.244Z,53.80
2019-05-29T21:10:54.360Z,53.50
2019-05-29T21:13:23.917Z,54.20
2019-05-29T21:15:52.856Z,53.60
2019-05-29T21:18:22.047Z,54.00
2019-05-29T21:20:51.024Z,54.10
2019-05-29T21:23:20.403Z,54.30
2019-05-29T21:25:49.732Z,54.40
2019-05-29T21:28:18.679Z,54.70
2019-05-29T21:30:47.760Z,54.90
2019-05-29T21:33:16.680Z,55.20
2019-05-29T21:35:46.392Z,55.30
2019-05-29T21:38:15.459Z,55.50
2019-05-29T21:40:44.599Z,55.70
2019-05-29T21:43:13.665Z,55.90
2019-05-29T21:45:43.160Z,56.20
2019-05-29T21:48:12.397Z,56.50
2019-05-29T21:50:41.445Z,56.70
2019-05-29T21:53:10.394Z,56.90
2019-05-29T21:55:39.550Z,56.90
2019-05-29T21:58:08.782Z,57.10
2019-05-29T22:00:42.254Z,57.20
2019-05-29T22:03:11.382Z,57.60
2019-05-29T22:05:40.595Z,57.70
2019-05-29T22:08:09.624Z,57.80
2019-05-29T22:10:38.649Z,58.70
2019-05-29T22:13:07.723Z,58.30
2019-05-29T22:15:36.927Z,58.50
2019-05-29T22:18:05.921Z,58.80
2019-05-29T22:20:35.056Z,58.80
2019-05-29T22:23:04.014Z,58.80
2019-05-29T22:25:34.604Z,58.90
2019-05-29T22:28:03.709Z,59.10
2019-05-29T22:30:32.944Z,59.50
2019-05-29T22:33:02.006Z,60.00
2019-05-29T22:35:31.154Z,60.00
2019-05-29T22:38:00.200Z,60.00
2019-05-29T22:40:29.289Z,60.10
2019-05-29T22:42:59.780Z,60.20
2019-05-29T22:45:28.887Z,60.30
2019-05-29T22:47:57.885Z,60.70
2019-05-29T22:50:26.987Z,60.90
2019-05-29T22:52:56.272Z,61.30
2019-05-29T22:55:25.222Z,61.60
2019-05-29T22:57:54.100Z,61.80
2019-05-29T23:00:23.518Z,62.10
2019-05-29T23:02:54.279Z,62.30
2019-05-29T23:05:23.242Z,62.70
2019-05-29T23:07:52.414Z,63.20
2019-05-29T23:10:21.457Z,63.90
2019-05-29T23:12:50.473Z,64.10
2019-05-29T23:15:19.504Z,64.40
2019-05-29T23:17:48.484Z,64.90
2019-05-29T23:20:17.649Z,65.20
2019-05-29T23:22:46.687Z,65.60
2019-05-29T23:25:15.822Z,65.90
2019-05-29T23:27:44.829Z,66.10
2019-05-29T23:30:14.143Z,66.30
2019-05-29T23:32:43.274Z,66.70
2019-05-29T23:35:12.323Z,67.00
2019-05-29T23:37:41.369Z,67.50
2019-05-29T23:40:12.106Z,67.80
2019-05-29T23:42:40.987Z,68.10
2019-05-29T23:45:10.178Z,68.50
2019-05-29T23:47:39.658Z,68.60
2019-05-29T23:50:10.248Z,68.90
2019-05-29T23:52:39.368Z,69.30
2019-05-29T23:55:08.887Z,69.80
2019-05-29T23:57:37.887Z,70.20
